sensor_id;sensor_type;location;lat;lon;timestamp;pressure;altitude;pressure_sealevel;temperature;humidity
59475;BME280;45288;51.136;16.928;2024-02-04T00:02:04;100126.03;;;8.70;100.00
59475;BME280;45288;51.136;16.928;2024-02-04T00:04:54;100134.19;;;8.78;100.00
59475;BME280;45288;51.136;16.928;2024-02-04T00:07:34;100124.13;;;8.72;100.00
59475;BME280;45288;51.136;16.928;2024-02-04T00:10:23;100143.59;;;8.68;100.00
59475;BME280;45288;51.136;16.928;2024-02-04T00:13:05;100143.97;;;8.62;100.00
59475;BME280;45288;51.136;16.928;2024-02-04T00:15:54;100135.84;;;8.66;100.00
59475;BME280;45288;51.136;16.928;2024-02-04T00:18:36;100139.66;;;8.48;100.00
59475;BME280;45288;51.136;16.928;2024-02-04T00:21:30;100141.00;;;8.41;100.00
59475;BME280;45288;51.136;16.928;2024-02-04T00:24:03;100142.06;;;8.51;100.00
59475;BME280;45288;51.136;16.928;2024-02-04T00:26:57;100144.69;;;8.51;100.00
59475;BME280;45288;51.136;16.928;2024-02-04T00:29:31;100150.41;;;8.43;100.00
59475;BME280;45288;51.136;16.928;2024-02-04T00:32:26;100148.53;;;8.45;100.00
59475;BME280;45288;51.136;16.928;2024-02-04T00:34:59;100154.22;;;8.52;100.00
59475;BME280;45288;51.136;16.928;2024-02-04T00:37:55;100150.41;;;8.43;100.00
59475;BME280;45288;51.136;16.928;2024-02-04T00:40:27;100137.34;;;8.43;100.00
59475;BME280;45288;51.136;16.928;2024-02-04T00:43:21;100134.13;;;8.38;100.00
59475;BME280;45288;51.136;16.928;2024-02-04T00:46:00;100137.03;;;8.34;100.00
59475;BME280;45288;51.136;16.928;2024-02-04T00:48:57;100136.34;;;8.32;100.00
59475;BME280;45288;51.136;16.928;2024-02-04T00:51:34;100141.44;;;8.33;100.00
59475;BME280;45288;51.136;16.928;2024-02-04T00:54:28;100137.53;;;8.40;100.00
59475;BME280;45288;51.136;16.928;2024-02-04T00:57:04;100139.78;;;8.32;100.00
59475;BME280;45288;51.136;16.928;2024-02-04T00:59:59;100139.88;;;8.30;100.00
59475;BME280;45288;51.136;16.928;2024-02-04T01:02:34;100156.03;;;8.37;100.00
59475;BME280;45288;51.136;16.928;2024-02-04T01:05:26;100143.84;;;8.36;100.00
59475;BME280;45288;51.136;16.928;2024-02-04T01:08:02;100164.06;;;8.34;100.00
59475;BME280;45288;51.136;16.928;2024-02-04T01:10:57;100150.44;;;8.29;100.00
59475;BME280;45288;51.136;16.928;2024-02-04T01:13:30;100150.25;;;8.32;100.00
59475;BME280;45288;51.136;16.928;2024-02-04T01:16:22;100132.13;;;8.29;100.00
59475;BME280;45288;51.136;16.928;2024-02-04T01:18:57;100146.69;;;8.33;100.00
59475;BME280;45288;51.136;16.928;2024-02-04T01:21:49;100140.22;;;8.39;100.00
59475;BME280;45288;51.136;16.928;2024-02-04T01:24:24;100149.09;;;8.36;100.00
59475;BME280;45288;51.136;16.928;2024-02-04T01:27:16;100140.53;;;8.34;100.00
59475;BME280;45288;51.136;16.928;2024-02-04T01:29:53;100147.63;;;8.32;100.00
59475;BME280;45288;51.136;16.928;2024-02-04T01:32:50;100130.06;;;8.34;100.00
59475;BME280;45288;51.136;16.928;2024-02-04T01:35:25;100133.13;;;8.41;100.00
59475;BME280;45288;51.136;16.928;2024-02-04T01:38:18;100135.59;;;8.29;100.00
59475;BME280;45288;51.136;16.928;2024-02-04T01:40:51;100136.34;;;8.32;100.00
59475;BME280;45288;51.136;16.928;2024-02-04T01:43:45;100136.97;;;8.35;100.00
59475;BME280;45288;51.136;16.928;2024-02-04T01:46:18;100128.84;;;8.25;100.00
59475;BME280;45288;51.136;16.928;2024-02-04T01:49:10;100114.47;;;8.33;100.00
59475;BME280;45288;51.136;16.928;2024-02-04T01:51:43;100117.16;;;8.45;100.00
59475;BME280;45288;51.136;16.928;2024-02-04T01:54:37;100115.41;;;8.32;100.00
59475;BME280;45288;51.136;16.928;2024-02-04T01:57:14;100111.50;;;8.51;100.00
59475;BME280;45288;51.136;16.928;2024-02-04T02:00:12;100111.00;;;8.32;100.00
59475;BME280;45288;51.136;16.928;2024-02-04T02:02:50;100100.97;;;8.39;100.00
59475;BME280;45288;51.136;16.928;2024-02-04T02:05:46;100100.53;;;8.32;100.00
59475;BME280;45288;51.136;16.928;2024-02-04T02:08:19;100102.75;;;8.38;100.00
59475;BME280;45288;51.136;16.928;2024-02-04T02:11:19;100112.78;;;8.32;100.00
59475;BME280;45288;51.136;16.928;2024-02-04T02:13:58;100117.00;;;8.34;100.00
59475;BME280;45288;51.136;16.928;2024-02-04T02:17:00;100109.50;;;8.42;100.00
59475;BME280;45288;51.136;16.928;2024-02-04T02:25:36;100115.94;;;8.64;100.00
59475;BME280;45288;51.136;16.928;2024-02-04T02:28:32;100100.94;;;8.53;100.00
59475;BME280;45288;51.136;16.928;2024-02-04T02:31:09;100102.84;;;8.64;100.00
59475;BME280;45288;51.136;16.928;2024-02-04T02:34:03;100104.84;;;8.60;100.00
59475;BME280;45288;51.136;16.928;2024-02-04T02:36:50;100094.75;;;8.54;100.00
59475;BME280;45288;51.136;16.928;2024-02-04T02:42:30;100099.38;;;8.50;100.00
59475;BME280;45288;51.136;16.928;2024-02-04T02:45:26;100096.63;;;8.39;100.00
59475;BME280;45288;51.136;16.928;2024-02-04T02:48:20;100094.66;;;8.28;100.00
59475;BME280;45288;51.136;16.928;2024-02-04T02:50:55;100084.50;;;8.24;100.00
59475;BME280;45288;51.136;16.928;2024-02-04T02:53:49;100060.03;;;8.25;100.00
59475;BME280;45288;51.136;16.928;2024-02-04T02:56:22;100089.00;;;8.22;100.00
59475;BME280;45288;51.136;16.928;2024-02-04T02:59:16;100101.59;;;8.29;100.00
59475;BME280;45288;51.136;16.928;2024-02-04T03:01:49;100115.34;;;8.19;100.00
59475;BME280;45288;51.136;16.928;2024-02-04T03:04:46;100096.19;;;8.18;100.00
59475;BME280;45288;51.136;16.928;2024-02-04T03:07:22;100103.19;;;8.18;100.00
59475;BME280;45288;51.136;16.928;2024-02-04T03:10:16;100090.06;;;8.05;100.00
59475;BME280;45288;51.136;16.928;2024-02-04T03:12:52;100086.75;;;8.16;100.00
59475;BME280;45288;51.136;16.928;2024-02-04T03:15:44;100089.25;;;8.04;100.00
59475;BME280;45288;51.136;16.928;2024-02-04T03:18:19;100099.81;;;8.03;100.00
59475;BME280;45288;51.136;16.928;2024-02-04T03:21:15;100107.00;;;7.99;100.00
59475;BME280;45288;51.136;16.928;2024-02-04T03:23:54;100115.66;;;8.00;100.00
59475;BME280;45288;51.136;16.928;2024-02-04T03:26:43;100105.97;;;8.02;100.00
59475;BME280;45288;51.136;16.928;2024-02-04T03:29:25;100103.47;;;8.00;100.00
59475;BME280;45288;51.136;16.928;2024-02-04T03:32:13;100096.25;;;8.04;100.00
59475;BME280;45288;51.136;16.928;2024-02-04T03:34:52;100100.66;;;8.03;100.00
59475;BME280;45288;51.136;16.928;2024-02-04T03:37:40;100115.59;;;7.87;100.00
59475;BME280;45288;51.136;16.928;2024-02-04T03:40:22;100112.56;;;7.80;100.00
59475;BME280;45288;51.136;16.928;2024-02-04T03:43:08;100106.66;;;7.77;100.00
59475;BME280;45288;51.136;16.928;2024-02-04T03:45:56;100112.44;;;7.82;100.00
59475;BME280;45288;51.136;16.928;2024-02-04T03:48:50;100108.25;;;7.79;100.00
59475;BME280;45288;51.136;16.928;2024-02-04T03:51:25;100130.00;;;7.80;100.00
59475;BME280;45288;51.136;16.928;2024-02-04T03:54:19;100127.69;;;7.75;100.00
59475;BME280;45288;51.136;16.928;2024-02-04T03:56:52;100120.13;;;7.71;100.00
59475;BME280;45288;51.136;16.928;2024-02-04T03:59:47;100130.97;;;7.64;100.00
59475;BME280;45288;51.136;16.928;2024-02-04T04:02:20;100131.59;;;7.68;100.00
59475;BME280;45288;51.136;16.928;2024-02-04T04:05:16;100133.03;;;7.59;100.00
59475;BME280;45288;51.136;16.928;2024-02-04T04:07:52;100133.75;;;7.61;100.00
59475;BME280;45288;51.136;16.928;2024-02-04T04:10:46;100142.44;;;7.62;100.00
59475;BME280;45288;51.136;16.928;2024-02-04T04:13:21;100144.31;;;7.60;100.00
59475;BME280;45288;51.136;16.928;2024-02-04T04:16:21;100144.19;;;7.61;100.00
59475;BME280;45288;51.136;16.928;2024-02-04T04:18:56;100152.88;;;7.76;100.00
59475;BME280;45288;51.136;16.928;2024-02-04T04:21:50;100136.75;;;7.70;100.00
59475;BME280;45288;51.136;16.928;2024-02-04T04:24:34;100137.31;;;7.75;100.00
59475;BME280;45288;51.136;16.928;2024-02-04T04:27:21;100142.25;;;7.65;100.00
59475;BME280;45288;51.136;16.928;2024-02-04T04:30:01;100137.66;;;7.69;100.00
59475;BME280;45288;51.136;16.928;2024-02-04T04:32:50;100139.16;;;7.73;100.00
59475;BME280;45288;51.136;16.928;2024-02-04T04:35:31;100140.28;;;7.69;100.00
59475;BME280;45288;51.136;16.928;2024-02-04T04:38:18;100142.69;;;7.72;100.00
59475;BME280;45288;51.136;16.928;2024-02-04T04:40:58;100141.22;;;7.68;100.00
59475;BME280;45288;51.136;16.928;2024-02-04T04:43:45;100144.66;;;7.82;100.00
59475;BME280;45288;51.136;16.928;2024-02-04T04:46:30;100138.88;;;7.77;100.00
59475;BME280;45288;51.136;16.928;2024-02-04T04:49:25;100142.69;;;7.72;100.00
59475;BME280;45288;51.136;16.928;2024-02-04T04:52:00;100144.31;;;7.60;100.00
59475;BME280;45288;51.136;16.928;2024-02-04T04:54:55;100151.03;;;7.50;100.00
59475;BME280;45288;51.136;16.928;2024-02-04T04:57:28;100144.50;;;7.57;100.00
59475;BME280;45288;51.136;16.928;2024-02-04T05:00:24;100151.78;;;7.52;100.00
59475;BME280;45288;51.136;16.928;2024-02-04T05:03:01;100137.59;;;7.41;100.00
59475;BME280;45288;51.136;16.928;2024-02-04T05:05:57;100132.00;;;7.33;100.00
59475;BME280;45288;51.136;16.928;2024-02-04T05:08:35;100136.66;;;7.28;100.00
59475;BME280;45288;51.136;16.928;2024-02-04T05:11:29;100129.47;;;7.46;100.00
59475;BME280;45288;51.136;16.928;2024-02-04T05:14:04;100128.91;;;7.41;100.00
59475;BME280;45288;51.136;16.928;2024-02-04T05:16:57;100120.13;;;7.42;100.00
59475;BME280;45288;51.136;16.928;2024-02-04T05:19:29;100130.22;;;7.34;100.00
59475;BME280;45288;51.136;16.928;2024-02-04T05:22:23;100138.41;;;7.28;100.00
59475;BME280;45288;51.136;16.928;2024-02-04T05:25:04;100139.16;;;7.15;100.00
59475;BME280;45288;51.136;16.928;2024-02-04T05:27:51;100142.50;;;7.17;100.00
59475;BME280;45288;51.136;16.928;2024-02-04T05:30:30;100147.44;;;7.22;100.00
59475;BME280;45288;51.136;16.928;2024-02-04T05:33:17;100156.03;;;7.24;100.00
59475;BME280;45288;51.136;16.928;2024-02-04T05:35:59;100166.66;;;7.21;100.00
59475;BME280;45288;51.136;16.928;2024-02-04T05:38:47;100170.75;;;7.25;100.00
59475;BME280;45288;51.136;16.928;2024-02-04T05:41:28;100170.50;;;7.15;100.00
59475;BME280;45288;51.136;16.928;2024-02-04T05:44:15;100161.06;;;7.13;100.00
59475;BME280;45288;51.136;16.928;2024-02-04T05:47:04;100166.00;;;7.17;100.00
59475;BME280;45288;51.136;16.928;2024-02-04T05:49:56;100157.69;;;7.11;100.00
59475;BME280;45288;51.136;16.928;2024-02-04T05:52:31;100165.41;;;7.12;100.00
59475;BME280;45288;51.136;16.928;2024-02-04T05:55:24;100169.34;;;7.05;100.00
59475;BME280;45288;51.136;16.928;2024-02-04T05:57:59;100162.03;;;6.96;100.00
59475;BME280;45288;51.136;16.928;2024-02-04T06:00:54;100168.84;;;6.98;100.00
59475;BME280;45288;51.136;16.928;2024-02-04T06:03:26;100163.22;;;7.20;100.00
59475;BME280;45288;51.136;16.928;2024-02-04T06:06:20;100161.84;;;6.99;100.00
59475;BME280;45288;51.136;16.928;2024-02-04T06:08:55;100152.94;;;7.03;100.00
59475;BME280;45288;51.136;16.928;2024-02-04T06:11:49;100164.28;;;7.02;100.00
59475;BME280;45288;51.136;16.928;2024-02-04T06:14:26;100167.47;;;7.07;100.00
59475;BME280;45288;51.136;16.928;2024-02-04T06:17:24;100164.75;;;6.94;100.00
59475;BME280;45288;51.136;16.928;2024-02-04T06:19:59;100172.03;;;6.89;100.00
59475;BME280;45288;51.136;16.928;2024-02-04T06:22:51;100176.28;;;6.90;100.00
59475;BME280;45288;51.136;16.928;2024-02-04T06:25:31;100168.38;;;6.92;100.00
59475;BME280;45288;51.136;16.928;2024-02-04T06:28:17;100166.63;;;6.92;100.00
59475;BME280;45288;51.136;16.928;2024-02-04T06:30:56;100179.28;;;6.98;100.00
59475;BME280;45288;51.136;16.928;2024-02-04T06:33:41;100181.00;;;6.84;100.00
59475;BME280;45288;51.136;16.928;2024-02-04T06:36:21;100171.66;;;7.10;100.00
59475;BME280;45288;51.136;16.928;2024-02-04T06:39:07;100179.34;;;6.83;100.00
59475;BME280;45288;51.136;16.928;2024-02-04T06:41:47;100175.78;;;6.84;100.00
59475;BME280;45288;51.136;16.928;2024-02-04T06:44:35;100167.81;;;6.87;100.00
59475;BME280;45288;51.136;16.928;2024-02-04T06:47:23;100173.47;;;6.79;100.00
59475;BME280;45288;51.136;16.928;2024-02-04T06:50:18;100173.28;;;6.82;100.00
59475;BME280;45288;51.136;16.928;2024-02-04T06:52:50;100165.03;;;6.90;100.00
59475;BME280;45288;51.136;16.928;2024-02-04T06:55:44;100159.81;;;6.90;100.00
59475;BME280;45288;51.136;16.928;2024-02-04T06:58:20;100163.69;;;6.83;100.00
59475;BME280;45288;51.136;16.928;2024-02-04T07:01:15;100158.53;;;6.81;100.00
59475;BME280;45288;51.136;16.928;2024-02-04T07:03:47;100153.69;;;6.75;100.00
59475;BME280;45288;51.136;16.928;2024-02-04T07:06:42;100155.78;;;6.84;100.00
59475;BME280;45288;51.136;16.928;2024-02-04T07:09:14;100151.09;;;6.75;100.00
59475;BME280;45288;51.136;16.928;2024-02-04T07:12:09;100140.25;;;6.67;100.00
59475;BME280;45288;51.136;16.928;2024-02-04T07:14:43;100146.75;;;6.60;100.00
59475;BME280;45288;51.136;16.928;2024-02-04T07:17:38;100143.56;;;6.54;100.00
59475;BME280;45288;51.136;16.928;2024-02-04T07:20:12;100146.38;;;6.66;100.00
59475;BME280;45288;51.136;16.928;2024-02-04T07:23:08;100135.28;;;6.62;100.00
59475;BME280;45288;51.136;16.928;2024-02-04T07:25:46;100140.13;;;6.54;100.00
59475;BME280;45288;51.136;16.928;2024-02-04T07:28:44;100145.53;;;6.65;100.00
59475;BME280;45288;51.136;16.928;2024-02-04T07:31:18;100140.31;;;6.65;100.00
59475;BME280;45288;51.136;16.928;2024-02-04T07:34:11;100144.91;;;6.62;100.00
59475;BME280;45288;51.136;16.928;2024-02-04T07:36:43;100143.50;;;6.70;100.00
59475;BME280;45288;51.136;16.928;2024-02-04T07:39:38;100137.78;;;6.80;100.00
59475;BME280;45288;51.136;16.928;2024-02-04T07:42:12;100138.34;;;6.85;100.00
59475;BME280;45288;51.136;16.928;2024-02-04T07:45:05;100148.63;;;7.02;100.00
59475;BME280;45288;51.136;16.928;2024-02-04T07:47:55;100147.84;;;6.86;100.00
59475;BME280;45288;51.136;16.928;2024-02-04T07:50:48;100143.75;;;6.82;100.00
59475;BME280;45288;51.136;16.928;2024-02-04T07:53:20;100139.25;;;6.84;100.00
59475;BME280;45288;51.136;16.928;2024-02-04T07:56:13;100122.44;;;6.89;100.00
59475;BME280;45288;51.136;16.928;2024-02-04T07:58:45;100124.75;;;6.94;100.00
59475;BME280;45288;51.136;16.928;2024-02-04T08:01:39;100133.91;;;7.01;100.00
59475;BME280;45288;51.136;16.928;2024-02-04T08:04:11;100139.31;;;7.12;100.00
59475;BME280;45288;51.136;16.928;2024-02-04T08:07:04;100124.59;;;7.11;100.00
59475;BME280;45288;51.136;16.928;2024-02-04T08:09:36;100124.22;;;7.03;100.00
59475;BME280;45288;51.136;16.928;2024-02-04T08:12:29;100123.75;;;7.11;100.00
59475;BME280;45288;51.136;16.928;2024-02-04T08:15:01;100114.91;;;7.13;100.00
59475;BME280;45288;51.136;16.928;2024-02-04T08:17:58;100127.03;;;7.29;100.00
59475;BME280;45288;51.136;16.928;2024-02-04T08:20:30;100115.09;;;7.39;100.00
59475;BME280;45288;51.136;16.928;2024-02-04T08:23:26;100106.31;;;7.40;100.00
59475;BME280;45288;51.136;16.928;2024-02-04T08:25:59;100113.88;;;7.45;100.00
59475;BME280;45288;51.136;16.928;2024-02-04T08:28:52;100128.00;;;7.56;100.00
59475;BME280;45288;51.136;16.928;2024-02-04T08:31:24;100126.09;;;7.58;100.00
59475;BME280;45288;51.136;16.928;2024-02-04T08:34:18;100128.78;;;7.71;100.00
59475;BME280;45288;51.136;16.928;2024-02-04T08:36:52;100127.56;;;7.91;100.00
59475;BME280;45288;51.136;16.928;2024-02-04T08:39:45;100123.28;;;7.76;100.00
59475;BME280;45288;51.136;16.928;2024-02-04T08:42:19;100120.66;;;7.90;100.00
59475;BME280;45288;51.136;16.928;2024-02-04T08:45:12;100129.06;;;7.81;100.00
59475;BME280;45288;51.136;16.928;2024-02-04T08:47:58;100119.31;;;7.97;100.00
59475;BME280;45288;51.136;16.928;2024-02-04T08:50:52;100115.81;;;7.84;100.00
59475;BME280;45288;51.136;16.928;2024-02-04T08:53:26;100120.66;;;7.90;100.00
59475;BME280;45288;51.136;16.928;2024-02-04T08:56:19;100119.63;;;7.93;100.00
59475;BME280;45288;51.136;16.928;2024-02-04T08:58:51;100103.34;;;8.02;100.00
59475;BME280;45288;51.136;16.928;2024-02-04T09:01:48;100102.09;;;8.07;100.00
59475;BME280;45288;51.136;16.928;2024-02-04T09:04:21;100104.19;;;8.02;100.00
59475;BME280;45288;51.136;16.928;2024-02-04T09:07:16;100095.78;;;7.97;100.00
59475;BME280;45288;51.136;16.928;2024-02-04T09:09:50;100091.16;;;7.88;100.00
59475;BME280;45288;51.136;16.928;2024-02-04T09:12:43;100099.06;;;8.01;100.00
59475;BME280;45288;51.136;16.928;2024-02-04T09:15:17;100092.94;;;8.15;100.00
59475;BME280;45288;51.136;16.928;2024-02-04T09:18:12;100088.53;;;8.15;100.00
59475;BME280;45288;51.136;16.928;2024-02-04T09:20:44;100097.75;;;8.21;100.00
59475;BME280;45288;51.136;16.928;2024-02-04T09:23:38;100090.81;;;8.34;100.00
59475;BME280;45288;51.136;16.928;2024-02-04T09:26:10;100067.47;;;8.31;100.00
59475;BME280;45288;51.136;16.928;2024-02-04T09:29:04;100064.97;;;8.29;100.00
59475;BME280;45288;51.136;16.928;2024-02-04T09:31:37;100060.78;;;8.27;100.00
59475;BME280;45288;51.136;16.928;2024-02-04T09:34:30;100074.94;;;8.37;100.00
59475;BME280;45288;51.136;16.928;2024-02-04T09:37:02;100071.34;;;8.38;100.00
59475;BME280;45288;51.136;16.928;2024-02-04T09:39:55;100075.84;;;8.36;100.00
59475;BME280;45288;51.136;16.928;2024-02-04T09:42:28;100073.00;;;8.54;100.00
59475;BME280;45288;51.136;16.928;2024-02-04T09:45:22;100078.66;;;8.47;100.00
59475;BME280;45288;51.136;16.928;2024-02-04T09:48:18;100082.34;;;8.58;100.00
59475;BME280;45288;51.136;16.928;2024-02-04T09:50:52;100076.97;;;8.59;100.00
59475;BME280;45288;51.136;16.928;2024-02-04T09:53:46;100064.94;;;8.57;100.00
59475;BME280;45288;51.136;16.928;2024-02-04T09:56:25;100038.06;;;8.55;100.00
59475;BME280;45288;51.136;16.928;2024-02-04T09:59:20;100035.56;;;8.66;100.00
59475;BME280;45288;51.136;16.928;2024-02-04T10:01:52;100028.63;;;8.78;100.00
59475;BME280;45288;51.136;16.928;2024-02-04T10:04:46;100035.88;;;8.74;100.00
59475;BME280;45288;51.136;16.928;2024-02-04T10:07:18;100026.13;;;8.76;100.00
59475;BME280;45288;51.136;16.928;2024-02-04T10:10:13;100024.03;;;8.81;100.00
59475;BME280;45288;51.136;16.928;2024-02-04T10:12:45;100022.69;;;8.76;100.00
59475;BME280;45288;51.136;16.928;2024-02-04T10:15:38;100025.63;;;8.97;100.00
59475;BME280;45288;51.136;16.928;2024-02-04T10:18:13;100020.78;;;8.78;100.00
59475;BME280;45288;51.136;16.928;2024-02-04T10:21:23;100031.69;;;8.84;100.00
59475;BME280;45288;51.136;16.928;2024-02-04T10:23:59;100022.78;;;8.74;100.00
59475;BME280;45288;51.136;16.928;2024-02-04T10:26:52;100031.06;;;8.81;100.00
59475;BME280;45288;51.136;16.928;2024-02-04T10:29:33;100016.94;;;8.83;100.00
59475;BME280;45288;51.136;16.928;2024-02-04T10:32:22;100010.44;;;8.76;100.00
59475;BME280;45288;51.136;16.928;2024-02-04T10:35:01;99998.25;;;8.75;100.00
59475;BME280;45288;51.136;16.928;2024-02-04T10:37:47;99990.53;;;8.86;100.00
59475;BME280;45288;51.136;16.928;2024-02-04T10:40:29;99992.41;;;8.84;100.00
59475;BME280;45288;51.136;16.928;2024-02-04T10:43:15;99991.38;;;8.87;100.00
59475;BME280;45288;51.136;16.928;2024-02-04T10:45:56;99982.97;;;8.94;100.00
59475;BME280;45288;51.136;16.928;2024-02-04T10:48:55;99979.00;;;9.02;100.00
59475;BME280;45288;51.136;16.928;2024-02-04T10:51:30;99974.88;;;9.10;100.00
59475;BME280;45288;51.136;16.928;2024-02-04T10:54:23;99959.69;;;9.15;100.00
59475;BME280;45288;51.136;16.928;2024-02-04T10:57:03;99974.06;;;9.10;100.00
59475;BME280;45288;51.136;16.928;2024-02-04T10:59:58;99971.00;;;9.16;100.00
59475;BME280;45288;51.136;16.928;2024-02-04T11:02:34;99971.63;;;9.20;100.00
59475;BME280;45288;51.136;16.928;2024-02-04T11:05:27;99964.91;;;9.28;100.00
59475;BME280;45288;51.136;16.928;2024-02-04T11:08:01;99971.38;;;9.35;100.00
59475;BME280;45288;51.136;16.928;2024-02-04T11:10:54;99949.63;;;9.22;100.00
59475;BME280;45288;51.136;16.928;2024-02-04T11:13:28;99948.38;;;9.15;100.00
59475;BME280;45288;51.136;16.928;2024-02-04T11:16:40;99939.16;;;9.22;100.00
59475;BME280;45288;51.136;16.928;2024-02-04T11:19:32;99920.91;;;9.21;100.00
59475;BME280;45288;51.136;16.928;2024-02-04T11:28:37;99912.28;;;9.31;100.00
59475;BME280;45288;51.136;16.928;2024-02-04T11:31:17;99922.97;;;9.28;100.00
59475;BME280;45288;51.136;16.928;2024-02-04T11:34:13;99917.28;;;9.34;100.00
59475;BME280;45288;51.136;16.928;2024-02-04T11:36:49;99921.47;;;9.37;100.00
59475;BME280;45288;51.136;16.928;2024-02-04T11:39:54;99914.75;;;9.46;100.00
59475;BME280;45288;51.136;16.928;2024-02-04T11:42:33;99922.88;;;9.54;100.00
59475;BME280;45288;51.136;16.928;2024-02-04T11:45:29;99919.31;;;9.55;100.00
59475;BME280;45288;51.136;16.928;2024-02-04T11:48:17;99909.75;;;9.78;100.00
59475;BME280;45288;51.136;16.928;2024-02-04T11:51:12;99901.09;;;9.89;100.00
59475;BME280;45288;51.136;16.928;2024-02-04T11:53:44;99891.78;;;9.85;100.00
59475;BME280;45288;51.136;16.928;2024-02-04T11:56:37;99884.16;;;9.81;100.00
59475;BME280;45288;51.136;16.928;2024-02-04T11:59:11;99876.53;;;9.90;100.00
59475;BME280;45288;51.136;16.928;2024-02-04T12:02:08;99877.22;;;9.80;100.00
59475;BME280;45288;51.136;16.928;2024-02-04T12:04:40;99859.84;;;9.79;100.00
59475;BME280;45288;51.136;16.928;2024-02-04T12:07:37;99864.84;;;9.82;100.00
59475;BME280;45288;51.136;16.928;2024-02-04T12:10:12;99854.34;;;9.82;100.00
59475;BME280;45288;51.136;16.928;2024-02-04T12:13:08;99847.31;;;9.83;100.00
59475;BME280;45288;51.136;16.928;2024-02-04T12:15:45;99862.22;;;9.94;100.00
59475;BME280;45288;51.136;16.928;2024-02-04T12:18:48;99835.56;;;10.00;100.00
59475;BME280;45288;51.136;16.928;2024-02-04T12:21:22;99841.75;;;9.99;100.00
59475;BME280;45288;51.136;16.928;2024-02-04T12:24:18;99843.19;;;10.03;100.00
59475;BME280;45288;51.136;16.928;2024-02-04T12:26:55;99826.50;;;10.04;100.00
59475;BME280;45288;51.136;16.928;2024-02-04T12:29:54;99828.75;;;9.97;100.00
59475;BME280;45288;51.136;16.928;2024-02-04T12:32:26;99827.47;;;10.03;100.00
59475;BME280;45288;51.136;16.928;2024-02-04T12:35:23;99809.94;;;10.03;100.00
59475;BME280;45288;51.136;16.928;2024-02-04T12:37:57;99798.38;;;10.06;100.00
59475;BME280;45288;51.136;16.928;2024-02-04T12:40:50;99791.81;;;10.12;100.00
59475;BME280;45288;51.136;16.928;2024-02-04T12:43:24;99792.88;;;10.09;100.00
59475;BME280;45288;51.136;16.928;2024-02-04T12:46:18;99781.56;;;10.20;100.00
59475;BME280;45288;51.136;16.928;2024-02-04T12:49:18;99776.19;;;10.21;100.00
59475;BME280;45288;51.136;16.928;2024-02-04T12:52:10;99770.94;;;10.21;100.00
59475;BME280;45288;51.136;16.928;2024-02-04T12:54:58;99756.41;;;10.06;100.00
59475;BME280;45288;51.136;16.928;2024-02-04T12:57:39;99752.59;;;10.10;100.00
59475;BME280;45288;51.136;16.928;2024-02-04T13:00:25;99746.03;;;10.16;100.00
59475;BME280;45288;51.136;16.928;2024-02-04T13:03:06;99747.00;;;10.15;100.00
59475;BME280;45288;51.136;16.928;2024-02-04T13:05:57;99755.69;;;10.15;100.00
59475;BME280;45288;51.136;16.928;2024-02-04T13:08:40;99753.06;;;10.26;100.00
59475;BME280;45288;51.136;16.928;2024-02-04T13:11:26;99748.88;;;10.24;100.00
59475;BME280;45288;51.136;16.928;2024-02-04T13:14:05;99758.69;;;10.33;100.00
59475;BME280;45288;51.136;16.928;2024-02-04T13:16:51;99747.81;;;10.26;100.00
59475;BME280;45288;51.136;16.928;2024-02-04T13:19:38;99745.56;;;10.11;100.00
59475;BME280;45288;51.136;16.928;2024-02-04T13:22:24;99744.00;;;10.08;100.00
59475;BME280;45288;51.136;16.928;2024-02-04T13:25:03;99753.53;;;10.20;100.00
59475;BME280;45288;51.136;16.928;2024-02-04T13:27:49;99756.50;;;10.27;100.00
59475;BME280;45288;51.136;16.928;2024-02-04T13:30:29;99747.59;;;10.30;100.00
59475;BME280;45288;51.136;16.928;2024-02-04T13:33:15;99754.78;;;10.28;100.00
59475;BME280;45288;51.136;16.928;2024-02-04T13:35:54;99759.13;;;10.27;100.00
59475;BME280;45288;51.136;16.928;2024-02-04T13:38:40;99758.56;;;10.23;100.00
59475;BME280;45288;51.136;16.928;2024-02-04T13:41:19;99743.41;;;10.16;100.00
59475;BME280;45288;51.136;16.928;2024-02-04T13:44:05;99743.31;;;10.17;100.00
59475;BME280;45288;51.136;16.928;2024-02-04T13:46:51;99742.09;;;10.10;100.00
59475;BME280;45288;51.136;16.928;2024-02-04T13:49:44;99737.78;;;10.09;100.00
59475;BME280;45288;51.136;16.928;2024-02-04T13:52:16;99740.41;;;10.09;100.00
59475;BME280;45288;51.136;16.928;2024-02-04T13:55:09;99742.56;;;10.04;100.00
59475;BME280;45288;51.136;16.928;2024-02-04T13:57:43;99732.31;;;10.01;100.00
59475;BME280;45288;51.136;16.928;2024-02-04T14:00:36;99744.50;;;10.02;100.00
59475;BME280;45288;51.136;16.928;2024-02-04T14:03:11;99760.22;;;10.02;100.00
59475;BME280;45288;51.136;16.928;2024-02-04T14:06:04;99740.53;;;9.96;100.00
59475;BME280;45288;51.136;16.928;2024-02-04T14:08:36;99750.69;;;9.90;100.00
59475;BME280;45288;51.136;16.928;2024-02-04T14:11:29;99755.44;;;9.73;100.00
59475;BME280;45288;51.136;16.928;2024-02-04T14:14:05;99769.72;;;9.69;100.00
59475;BME280;45288;51.136;16.928;2024-02-04T14:17:00;99777.78;;;9.55;100.00
59475;BME280;45288;51.136;16.928;2024-02-04T14:19:32;99784.03;;;9.30;100.00
59475;BME280;45288;51.136;16.928;2024-02-04T14:22:27;99750.66;;;9.21;100.00
59475;BME280;45288;51.136;16.928;2024-02-04T14:24:59;99746.94;;;9.12;100.00
59475;BME280;45288;51.136;16.928;2024-02-04T14:27:52;99782.88;;;9.10;100.00